createdAt,value
2023-05-04T00:01:19.158Z,4.82
2023-05-04T00:06:40.910Z,4.60
2023-05-04T00:12:02.639Z,4.85
2023-05-04T00:17:24.375Z,5.10
2023-05-04T00:22:46.116Z,4.57
2023-05-04T00:28:07.843Z,5.30
2023-05-04T00:33:29.576Z,4.80
2023-05-04T00:38:53.693Z,5.35
2023-05-04T00:44:15.553Z,5.20
2023-05-04T00:49:37.683Z,4.90
2023-05-04T00:55:01.341Z,5.30
2023-05-04T01:00:23.193Z,5.28
2023-05-04T01:05:54.947Z,5.90
2023-05-04T01:11:21.798Z,5.22
2023-05-04T01:16:43.678Z,4.97
2023-05-04T01:22:05.579Z,5.13
2023-05-04T01:27:37.376Z,5.00
2023-05-04T01:33:01.251Z,5.25
2023-05-04T01:38:23.026Z,5.60
2023-05-04T01:43:44.715Z,5.22
2023-05-04T01:49:07.883Z,5.38
2023-05-04T01:54:29.592Z,5.40
2023-05-04T01:59:51.327Z,5.80
2023-05-04T02:05:13.141Z,5.68
2023-05-04T02:10:34.930Z,5.40
2023-05-04T02:15:56.870Z,6.00
2023-05-04T02:21:18.536Z,5.68
2023-05-04T02:26:40.418Z,5.50
2023-05-04T02:32:02.210Z,5.47
2023-05-04T02:37:24.091Z,5.75
2023-05-04T02:42:45.803Z,6.07
2023-05-04T02:48:07.570Z,6.30
2023-05-04T02:53:29.420Z,6.10
2023-05-04T02:58:51.390Z,6.10
2023-05-04T03:04:13.174Z,6.10
2023-05-04T03:09:34.962Z,6.70
2023-05-04T03:14:56.927Z,5.93
2023-05-04T03:20:18.660Z,6.20
2023-05-04T03:25:40.658Z,6.10
2023-05-04T03:31:03.114Z,6.50
2023-05-04T03:36:24.923Z,6.60
2023-05-04T03:41:46.672Z,6.97
2023-05-04T03:47:08.370Z,6.18
2023-05-04T03:52:30.105Z,7.65
2023-05-04T03:57:51.837Z,8.05
2023-05-04T04:03:13.632Z,7.93
2023-05-04T04:08:35.784Z,8.82
2023-05-04T04:13:57.502Z,8.30
2023-05-04T04:19:19.247Z,9.13
2023-05-04T04:24:40.923Z,9.57
2023-05-04T04:30:04.421Z,9.95
2023-05-04T04:35:27.452Z,10.70
2023-05-04T04:40:49.166Z,9.60
2023-05-04T04:46:10.919Z,10.27
2023-05-04T04:51:32.679Z,10.18
2023-05-04T04:56:54.935Z,10.63
2023-05-04T05:02:16.700Z,9.93
2023-05-04T05:07:38.554Z,10.40
2023-05-04T05:13:01.132Z,9.90
2023-05-04T05:18:23.940Z,9.25
2023-05-04T05:23:45.745Z,8.70
2023-05-04T05:29:08.356Z,8.90
2023-05-04T05:34:30.108Z,9.05
2023-05-04T05:39:51.815Z,9.20
2023-05-04T05:45:13.984Z,9.20
2023-05-04T05:50:35.776Z,9.63
2023-05-04T05:55:57.627Z,10.35
2023-05-04T06:01:19.500Z,10.98
2023-05-04T06:06:42.639Z,10.10
2023-05-04T06:12:07.121Z,10.60
2023-05-04T06:17:28.997Z,10.63
2023-05-04T06:22:50.806Z,10.07
2023-05-04T06:28:12.508Z,12.10
2023-05-04T06:33:34.198Z,12.38
2023-05-04T06:38:58.124Z,11.48
2023-05-04T06:44:19.943Z,12.20
2023-05-04T06:49:41.680Z,12.48
2023-05-04T06:55:03.568Z,12.75
2023-05-04T07:00:25.615Z,12.80
2023-05-04T07:05:48.671Z,13.60
2023-05-04T07:11:10.449Z,12.57
2023-05-04T07:16:33.044Z,13.75
2023-05-04T07:21:56.081Z,13.50
2023-05-04T07:27:17.761Z,13.32
2023-05-04T07:32:39.489Z,12.60
2023-05-04T07:38:01.440Z,12.75
2023-05-04T07:43:23.583Z,11.63
2023-05-04T07:48:45.334Z,12.05
2023-05-04T07:54:07.100Z,11.18
2023-05-04T07:59:29.126Z,10.60
2023-05-04T08:04:50.834Z,11.18
2023-05-04T08:10:12.556Z,10.90
2023-05-04T08:15:34.288Z,9.95
2023-05-04T08:20:56.534Z,10.52
2023-05-04T08:26:19.687Z,8.27
2023-05-04T08:31:41.486Z,8.73
2023-05-04T08:37:04.634Z,8.38
2023-05-04T08:42:28.033Z,7.68
2023-05-04T08:47:50.649Z,7.80
2023-05-04T08:53:14.369Z,6.18
2023-05-04T08:58:38.237Z,5.75
2023-05-04T09:04:02.512Z,5.00
2023-05-04T09:09:28.330Z,4.43
2023-05-04T09:14:50.211Z,4.65
2023-05-04T09:20:13.242Z,4.30
2023-05-04T09:25:49.821Z,4.28
2023-05-04T09:31:11.958Z,5.63
2023-05-04T09:36:33.736Z,4.30
2023-05-04T09:41:56.473Z,4.35
2023-05-04T09:47:18.464Z,4.10
2023-05-04T09:52:42.005Z,4.30
2023-05-04T09:58:04.681Z,4.22
2023-05-04T10:03:27.839Z,4.20
2023-05-04T10:08:50.933Z,4.10
2023-05-04T10:14:13.344Z,3.35
2023-05-04T10:19:50.190Z,3.80
2023-05-04T10:25:19.007Z,3.65
2023-05-04T10:30:40.918Z,3.90
2023-05-04T10:36:02.985Z,3.30
2023-05-04T10:41:24.820Z,2.92
2023-05-04T10:47:01.961Z,3.22
2023-05-04T10:52:23.969Z,3.00
2023-05-04T10:57:56.184Z,3.85
2023-05-04T11:03:19.074Z,3.30
2023-05-04T11:08:41.409Z,2.92
2023-05-04T11:14:03.236Z,3.13
2023-05-04T11:19:24.935Z,3.03
2023-05-04T11:24:48.631Z,3.20
2023-05-04T11:30:10.992Z,3.38
2023-05-04T11:35:32.739Z,3.00
2023-05-04T11:40:54.561Z,2.60
2023-05-04T11:46:16.840Z,2.80
2023-05-04T11:51:38.742Z,2.60
2023-05-04T11:57:03.284Z,3.00
2023-05-04T12:02:26.886Z,3.30
2023-05-04T12:07:48.661Z,3.05
2023-05-04T12:13:17.495Z,4.03
2023-05-04T12:18:40.205Z,2.78
2023-05-04T12:24:03.245Z,2.97
2023-05-04T12:29:25.050Z,3.17
2023-05-04T12:34:46.768Z,3.78
2023-05-04T12:40:21.135Z,3.85
2023-05-04T12:45:50.635Z,3.80
2023-05-04T12:51:12.384Z,3.53
2023-05-04T12:56:34.110Z,5.07
2023-05-04T13:01:55.829Z,4.18
2023-05-04T13:07:17.555Z,4.07
2023-05-04T13:12:39.546Z,3.95
2023-05-04T13:18:01.514Z,3.40
2023-05-04T13:23:24.111Z,3.92
2023-05-04T13:28:45.851Z,3.83
2023-05-04T13:34:07.581Z,4.28
2023-05-04T13:39:29.335Z,4.22
2023-05-04T13:44:51.052Z,4.22
2023-05-04T13:50:13.509Z,3.63
2023-05-04T13:55:35.200Z,3.05
2023-05-04T14:00:57.712Z,3.90
2023-05-04T14:06:19.466Z,3.88
2023-05-04T14:11:41.266Z,4.30
2023-05-04T14:17:02.956Z,4.45
2023-05-04T14:22:24.754Z,4.07
2023-05-04T14:27:46.432Z,3.80
2023-05-04T14:33:08.203Z,4.03
2023-05-04T14:38:29.931Z,3.70
2023-05-04T14:43:52.387Z,3.85
2023-05-04T14:49:21.404Z,3.60
2023-05-04T14:54:46.684Z,4.07
2023-05-04T15:00:09.500Z,3.55
2023-05-04T15:05:31.646Z,3.20
2023-05-04T15:10:57.225Z,3.50
2023-05-04T15:16:19.020Z,3.42
2023-05-04T15:21:41.601Z,3.40
2023-05-04T15:27:03.641Z,3.42
2023-05-04T15:32:25.750Z,3.63
2023-05-04T15:37:47.467Z,3.25
2023-05-04T15:43:09.387Z,3.55
2023-05-04T15:48:31.222Z,3.53
2023-05-04T15:53:52.932Z,3.10
2023-05-04T15:59:17.274Z,3.78
2023-05-04T16:04:39.084Z,3.05
2023-05-04T16:10:01.082Z,3.22
2023-05-04T16:15:22.953Z,3.10
2023-05-04T16:20:45.808Z,3.35
2023-05-04T16:26:07.656Z,3.72
2023-05-04T16:31:29.484Z,2.78
2023-05-04T16:36:51.279Z,3.30
2023-05-04T16:42:13.093Z,4.60
2023-05-04T16:47:34.855Z,3.80
2023-05-04T16:52:56.655Z,3.00
2023-05-04T16:58:18.366Z,3.47
2023-05-04T17:03:40.341Z,3.58
2023-05-04T17:09:03.716Z,3.40
2023-05-04T17:14:26.516Z,3.40
2023-05-04T17:19:48.312Z,3.28
2023-05-04T17:25:11.296Z,3.30
2023-05-04T17:30:35.563Z,3.50
2023-05-04T17:35:57.293Z,3.72
2023-05-04T17:41:19.216Z,4.43
2023-05-04T17:46:40.976Z,4.45
2023-05-04T17:52:02.791Z,3.80
2023-05-04T17:57:24.537Z,3.47
2023-05-04T18:02:46.889Z,3.67
2023-05-04T18:08:08.791Z,3.65
2023-05-04T18:13:30.494Z,3.13
2023-05-04T18:18:52.618Z,3.28
2023-05-04T18:24:14.420Z,3.25
2023-05-04T18:29:36.139Z,3.30
2023-05-04T18:34:58.072Z,4.10
2023-05-04T18:40:19.877Z,3.80
2023-05-04T18:45:41.608Z,4.50
2023-05-04T18:51:03.560Z,5.15
2023-05-04T18:56:25.885Z,6.00
2023-05-04T19:01:47.757Z,5.50
2023-05-04T19:07:12.437Z,6.15
2023-05-04T19:12:34.347Z,4.75
2023-05-04T19:17:56.123Z,3.70
2023-05-04T19:23:18.050Z,3.50
2023-05-04T19:28:39.960Z,4.90
2023-05-04T19:34:01.934Z,3.88
2023-05-04T19:39:23.776Z,3.83
2023-05-04T19:44:45.782Z,3.63
2023-05-04T19:50:10.818Z,3.67
2023-05-04T19:55:33.072Z,4.38
2023-05-04T20:00:54.838Z,4.07
2023-05-04T20:06:16.829Z,3.85
2023-05-04T20:11:38.587Z,3.90
2023-05-04T20:17:00.424Z,3.78
2023-05-04T20:22:22.247Z,3.10
2023-05-04T20:27:45.401Z,3.95
2023-05-04T20:33:07.188Z,4.05
2023-05-04T20:38:28.948Z,3.75
2023-05-04T20:43:50.749Z,3.67
2023-05-04T20:49:12.724Z,3.97
2023-05-04T20:54:34.472Z,4.00
2023-05-04T20:59:56.543Z,3.75
2023-05-04T21:05:18.435Z,4.18
2023-05-04T21:10:40.157Z,4.10
2023-05-04T21:16:01.959Z,4.18
2023-05-04T21:21:23.884Z,3.72
2023-05-04T21:26:45.969Z,4.53
2023-05-04T21:32:07.765Z,4.53
2023-05-04T21:37:30.029Z,3.97
2023-05-04T21:42:51.703Z,3.50
2023-05-04T21:48:13.458Z,3.90
2023-05-04T21:53:35.323Z,4.25
2023-05-04T21:58:57.092Z,4.55
2023-05-04T22:04:18.816Z,4.40
2023-05-04T22:09:40.701Z,3.47
2023-05-04T22:15:02.458Z,3.33
2023-05-04T22:20:26.634Z,3.58
2023-05-04T22:25:48.417Z,3.85
2023-05-04T22:31:10.326Z,4.10
2023-05-04T22:36:32.158Z,4.10
2023-05-04T22:41:53.857Z,3.58
2023-05-04T22:47:15.651Z,4.38
2023-05-04T22:52:38.101Z,4.90
2023-05-04T22:57:59.972Z,4.75
2023-05-04T23:03:21.783Z,4.57
2023-05-04T23:08:45.254Z,4.38
2023-05-04T23:14:07.322Z,4.93
2023-05-04T23:19:30.002Z,4.88
2023-05-04T23:24:51.759Z,4.30
2023-05-04T23:30:14.088Z,4.78
2023-05-04T23:35:35.800Z,3.72
2023-05-04T23:40:57.777Z,4.45
2023-05-04T23:46:19.476Z,4.07
2023-05-04T23:51:41.205Z,4.03
2023-05-04T23:57:03.541Z,4.63
